Time;durP1;ratioP1;P1;durP2;ratioP2;P2;SDS_P1;SDS_P2;PMS_P1;PMS_P2;Temp;Humidity;BMP_temperature;BMP_pressure;BME280_temperature;BME280_humidity;BME280_pressure;Samples;Min_cycle;Max_cycle;Signal;HPM_P1;HPM_P2
2023/09/04 00:00:18;;;;;;;;;8.50;8.50;;;;;13.80;77.43;101040.69;5094554;28;9024;-58
2023/09/04 00:02:48;;;;;;;;;8.00;7.00;;;;;13.78;77.55;101042.63;5095422;28;8826;-59
2023/09/04 00:05:18;;;;;;;;;8.50;8.50;;;;;13.78;77.56;101043.50;5095287;28;8818;-58
2023/09/04 00:07:46;;;;;;;;;9.00;8.00;;;;;13.76;77.27;101049.94;5095216;28;8837;-59
2023/09/04 00:10:13;;;;;;;;;9.50;7.50;;;;;13.76;77.01;101047.25;5095079;28;8912;-58
2023/09/04 00:12:41;;;;;;;;;12.50;11.00;;;;;13.76;77.81;101042.75;5094496;28;8838;-56
2023/09/04 00:15:08;;;;;;;;;7.00;6.00;;;;;13.76;76.92;101045.44;5094101;28;8806;-58
2023/09/04 00:17:36;;;;;;;;;7.50;6.25;;;;;13.76;77.19;101037.41;5094324;28;8826;-58
2023/09/04 00:20:05;;;;;;;;;9.50;9.00;;;;;13.76;77.41;101033.88;5094250;28;8830;-58
2023/09/04 00:22:32;;;;;;;;;8.50;7.00;;;;;13.73;77.50;101028.75;5094805;28;9601;-57
2023/09/04 00:25:00;;;;;;;;;9.25;9.00;;;;;13.68;77.23;101018.38;5094776;28;8865;-59
2023/09/04 00:27:28;;;;;;;;;7.00;6.75;;;;;13.65;77.33;101026.63;5089569;28;8825;-57
2023/09/04 00:29:55;;;;;;;;;6.25;6.00;;;;;13.62;77.31;101024.19;5093484;28;8826;-57
2023/09/04 00:32:23;;;;;;;;;8.00;8.00;;;;;13.60;77.49;101034.16;5093930;28;8818;-57
2023/09/04 00:34:51;;;;;;;;;6.75;6.50;;;;;13.59;77.42;101031.59;5094593;28;9491;-58
2023/09/04 00:37:18;;;;;;;;;6.50;6.50;;;;;13.59;76.90;101042.31;5094004;28;8815;-57
2023/09/04 00:39:46;;;;;;;;;7.00;6.25;;;;;13.57;77.85;101031.72;5093113;28;8802;-58
2023/09/04 00:42:15;;;;;;;;;7.25;7.25;;;;;13.56;78.18;101034.50;5094384;28;8837;-57
2023/09/04 00:44:46;;;;;;;;;6.75;6.00;;;;;13.52;77.96;101030.34;5093894;28;8854;-57
2023/09/04 00:47:14;;;;;;;;;6.50;6.50;;;;;13.51;77.64;101039.34;5094621;28;8850;-59
2023/09/04 00:49:42;;;;;;;;;6.75;6.25;;;;;13.48;77.53;101032.41;5094795;28;8807;-58
2023/09/04 00:52:10;;;;;;;;;7.00;3.75;;;;;13.46;77.53;101038.81;5095002;28;8822;-57
2023/09/04 00:54:37;;;;;;;;;6.00;6.00;;;;;13.43;77.58;101045.25;5093101;28;8860;-58
2023/09/04 00:57:05;;;;;;;;;6.50;6.00;;;;;13.42;77.55;101045.34;5094308;28;9537;-60
2023/09/04 00:59:33;;;;;;;;;8.50;6.50;;;;;13.41;77.43;101049.00;5093732;28;8826;-57
2023/09/04 01:02:00;;;;;;;;;1.50;1.00;;;;;13.40;77.95;101041.94;5097960;28;8814;-59
2023/09/04 01:04:28;;;;;;;;;9.00;8.00;;;;;13.39;77.13;101041.13;5098778;28;8818;-58
2023/09/04 01:06:56;;;;;;;;;5.75;4.50;;;;;13.37;78.00;101032.31;5098232;28;8822;-56
2023/09/04 01:09:23;;;;;;;;;6.00;5.50;;;;;13.36;77.35;101027.94;5097003;28;8834;-60
2023/09/04 01:11:51;;;;;;;;;6.75;6.75;;;;;13.34;77.72;101027.22;5098273;28;8826;-58
2023/09/04 01:14:18;;;;;;;;;6.50;6.50;;;;;13.32;77.98;101030.97;5098611;28;8814;-59
2023/09/04 01:16:46;;;;;;;;;4.50;3.75;;;;;13.30;78.01;101030.22;5098612;28;9479;-59
2023/09/04 01:19:16;;;;;;;;;6.50;6.50;;;;;13.25;78.07;101027.03;5098091;28;8953;-57
2023/09/04 01:21:44;;;;;;;;;6.00;6.00;;;;;13.21;77.93;101030.91;5099392;28;9487;-58
2023/09/04 01:24:12;;;;;;;;;4.00;4.00;;;;;13.17;77.79;101029.41;5097450;28;8828;-59
2023/09/04 01:26:39;;;;;;;;;6.00;5.33;;;;;13.14;77.35;101022.44;5097453;28;8849;-58
2023/09/04 01:29:07;;;;;;;;;5.50;5.00;;;;;13.12;78.23;101019.03;5097444;28;8826;-59
2023/09/04 01:31:35;;;;;;;;;5.50;4.50;;;;;13.11;77.55;101021.81;5097837;28;8822;-57
2023/09/04 01:34:03;;;;;;;;;8.50;6.00;;;;;13.09;77.69;101018.41;5097846;28;8838;-57
2023/09/04 01:36:32;;;;;;;;;6.00;6.00;;;;;13.06;77.56;101022.16;5098420;28;8823;-57
2023/09/04 01:39:00;;;;;;;;;6.25;6.00;;;;;13.05;77.45;101016.94;5098697;28;8836;-56
2023/09/04 01:41:27;;;;;;;;;7.00;7.00;;;;;13.02;78.08;101014.47;5098454;28;8820;-59
2023/09/04 01:43:55;;;;;;;;;6.25;6.00;;;;;13.00;78.01;101011.06;5098932;28;8812;-58
2023/09/04 01:46:23;;;;;;;;;5.50;5.50;;;;;12.97;77.82;101004.13;5098628;28;8851;-59
2023/09/04 01:48:51;;;;;;;;;6.75;6.25;;;;;12.94;78.14;101001.69;5098245;28;8812;-60
2023/09/04 01:51:19;;;;;;;;;5.50;5.50;;;;;12.90;77.86;101010.84;5097503;28;8846;-59
2023/09/04 01:53:46;;;;;;;;;4.00;4.00;;;;;12.89;78.68;101008.25;5097583;28;8823;-59
2023/09/04 01:56:14;;;;;;;;;6.00;3.50;;;;;12.84;78.26;101013.09;5097890;28;8812;-57
2023/09/04 01:58:41;;;;;;;;;6.25;6.25;;;;;12.80;78.01;101011.59;5097144;28;8828;-59
2023/09/04 02:01:09;;;;;;;;;3.00;3.00;;;;;12.77;78.21;101019.84;5097218;28;8831;-58
2023/09/04 02:03:37;;;;;;;;;6.50;5.00;;;;;12.76;78.31;101018.16;5096771;28;8818;-59
2023/09/04 02:06:06;;;;;;;;;6.00;4.00;;;;;12.72;78.66;101022.00;5097307;28;8818;-57
2023/09/04 02:08:34;;;;;;;;;6.00;4.00;;;;;12.71;77.82;101020.28;5096766;28;8834;-59
2023/09/04 02:11:02;;;;;;;;;7.00;6.00;;;;;12.69;78.55;101017.72;5096626;28;8856;-59
2023/09/04 02:13:29;;;;;;;;;3.00;3.00;;;;;12.69;78.47;101022.22;5096902;28;8889;-59
2023/09/04 02:15:57;;;;;;;;;9.33;7.00;;;;;12.70;78.77;101023.94;5097398;28;8850;-60
2023/09/04 02:18:25;;;;;;;;;1.50;1.50;;;;;12.68;78.27;101023.19;5097364;28;8818;-58
2023/09/04 02:20:53;;;;;;;;;9.25;9.00;;;;;12.69;77.98;101017.72;5097189;28;8826;-59
2023/09/04 02:23:20;;;;;;;;;10.00;9.00;;;;;12.69;78.05;101008.84;5096765;28;8829;-60
2023/09/04 02:25:48;;;;;;;;;6.75;6.75;;;;;12.68;78.52;101016.00;5082358;28;9558;-60
2023/09/04 02:28:15;;;;;;;;;9.00;7.25;;;;;12.70;78.17;101013.22;5097499;28;9317;-59
2023/09/04 02:30:43;;;;;;;;;9.00;9.00;;;;;12.71;77.71;101017.63;5096213;28;8806;-56
2023/09/04 02:33:10;;;;;;;;;6.00;6.00;;;;;12.72;77.84;101006.81;5096726;28;8818;-59
2023/09/04 02:35:40;;;;;;;;;7.50;7.00;;;;;12.73;78.23;101005.84;5096645;28;9706;-58
2023/09/04 02:38:07;;;;;;;;;7.00;7.00;;;;;12.73;77.84;101004.97;5096323;28;8876;-59
2023/09/04 02:40:35;;;;;;;;;10.00;9.00;;;;;12.74;78.00;101001.34;5096737;28;8798;-57
2023/09/04 02:43:03;;;;;;;;;7.50;7.00;;;;;12.72;77.96;101001.47;5097565;28;8840;-59
2023/09/04 02:45:31;;;;;;;;;8.75;8.75;;;;;12.72;78.02;100997.94;5096510;28;8822;-58
2023/09/04 02:47:59;;;;;;;;;3.00;3.00;;;;;12.69;78.23;100999.00;5097012;28;8826;-59
2023/09/04 02:50:27;;;;;;;;;6.25;5.00;;;;;12.66;77.86;101003.72;5095857;28;8898;-58
2023/09/04 02:52:54;;;;;;;;;7.00;7.00;;;;;12.62;78.69;101004.91;5096919;28;8840;-57
2023/09/04 02:55:22;;;;;;;;;6.25;6.00;;;;;12.59;78.11;100999.75;5095962;28;8810;-57
2023/09/04 02:57:50;;;;;;;;;6.50;5.50;;;;;12.58;78.29;100998.06;5096225;28;8802;-57
2023/09/04 03:00:17;;;;;;;;;6.25;6.00;;;;;12.54;78.29;100993.91;5095771;28;8810;-57
2023/09/04 03:02:45;;;;;;;;;6.00;5.50;;;;;12.51;78.78;100991.44;5096845;28;8844;-57
2023/09/04 03:05:13;;;;;;;;;5.50;5.50;;;;;12.47;78.50;100989.97;5096692;28;9514;-56
2023/09/04 03:07:40;;;;;;;;;6.75;6.75;;;;;12.44;78.09;100984.81;5096322;28;8814;-59
2023/09/04 03:10:08;;;;;;;;;6.50;6.25;;;;;12.41;78.53;100987.72;5094854;28;8838;-57
2023/09/04 03:12:35;;;;;;;;;5.25;5.00;;;;;12.33;78.21;100987.41;5096157;28;8834;-57
2023/09/04 03:15:03;;;;;;;;;6.50;6.00;;;;;12.27;78.79;100982.47;5096619;28;8833;-59
2023/09/04 03:17:31;;;;;;;;;2.50;1.00;;;;;12.23;78.92;100987.19;5096205;28;9549;-60
2023/09/04 03:19:58;;;;;;;;;3.50;3.50;;;;;12.21;78.96;100985.56;5095906;28;8814;-56
2023/09/04 03:22:26;;;;;;;;;7.75;6.50;;;;;12.16;78.56;100988.56;5095501;28;8818;-57
2023/09/04 03:24:54;;;;;;;;;4.00;4.00;;;;;12.13;79.21;100991.47;5095927;28;8814;-57
2023/09/04 03:27:21;;;;;;;;;6.75;6.75;;;;;12.10;78.90;100990.81;5095023;28;8822;-59
2023/09/04 03:29:49;;;;;;;;;4.00;4.00;;;;;12.07;79.31;100986.53;5095352;28;8840;-57
2023/09/04 03:32:17;;;;;;;;;4.75;3.00;;;;;12.05;79.41;100979.59;5095718;28;8831;-59
2023/09/04 03:34:44;;;;;;;;;6.00;6.00;;;;;12.03;78.46;100984.19;5095162;28;8828;-57
2023/09/04 03:37:12;;;;;;;;;4.50;4.50;;;;;12.00;79.22;100979.06;5095770;28;8838;-58
2023/09/04 03:39:39;;;;;;;;;4.50;4.00;;;;;11.98;79.25;100980.97;5095894;28;8814;-59
2023/09/04 03:42:07;;;;;;;;;4.00;4.00;;;;;11.96;79.17;100980.22;5096047;28;8818;-60
2023/09/04 03:44:35;;;;;;;;;3.75;3.25;;;;;11.90;78.93;100977.16;5094761;28;8829;-58
2023/09/04 03:47:03;;;;;;;;;3.00;3.00;;;;;11.85;79.05;100982.81;5095608;28;8884;-60
2023/09/04 03:49:30;;;;;;;;;6.00;6.00;;;;;11.82;79.55;100979.47;5094961;28;8952;-57
2023/09/04 03:51:58;;;;;;;;;6.00;4.50;;;;;11.79;79.80;100985.00;5095133;28;8940;-58
2023/09/04 03:54:25;;;;;;;;;6.00;5.50;;;;;11.78;79.49;100985.97;5095524;28;8830;-59
2023/09/04 03:56:53;;;;;;;;;4.50;4.00;;;;;11.78;79.20;100975.31;5095340;28;8832;-59
2023/09/04 03:59:21;;;;;;;;;3.50;3.50;;;;;11.75;79.03;100968.34;5096018;28;8825;-59
2023/09/04 04:01:48;;;;;;;;;8.50;6.75;;;;;11.76;79.46;100970.06;5094555;28;8814;-59
2023/09/04 04:04:16;;;;;;;;;11.00;8.00;;;;;11.76;79.08;100970.06;5095469;28;8856;-60
2023/09/04 04:06:44;;;;;;;;;8.00;6.50;;;;;11.79;79.18;100959.19;5095323;28;8833;-57
2023/09/04 04:09:13;;;;;;;;;4.00;4.00;;;;;11.83;79.25;100971.34;5095619;28;8846;-59
2023/09/04 04:11:41;;;;;;;;;6.00;6.00;;;;;11.86;78.61;100968.50;5095667;28;8810;-57
2023/09/04 04:14:08;;;;;;;;;1.00;1.00;;;;;11.89;78.41;100972.78;5095132;28;8814;-58
2023/09/04 04:16:36;;;;;;;;;8.00;6.25;;;;;11.90;78.78;100983.31;5095463;28;8843;-57
2023/09/04 04:19:04;;;;;;;;;5.50;4.00;;;;;11.93;78.78;100973.28;5094865;28;9604;-60
2023/09/04 04:21:32;;;;;;;;;6.00;5.50;;;;;11.93;78.91;100973.28;5094644;28;8814;-60
2023/09/04 04:23:59;;;;;;;;;6.00;6.00;;;;;11.93;78.31;100962.59;5094834;28;8919;-58
2023/09/04 04:26:27;;;;;;;;;4.00;4.00;;;;;11.94;78.33;100969.66;5096087;28;8815;-59
2023/09/04 04:28:55;;;;;;;;;7.00;6.50;;;;;11.98;78.79;100977.47;5094907;28;8820;-57
2023/09/04 04:31:23;;;;;;;;;6.00;5.00;;;;;12.00;78.33;100977.25;5094195;28;8803;-57
2023/09/04 04:33:50;;;;;;;;;7.00;7.00;;;;;12.01;78.38;100968.28;5094445;28;8977;-58
2023/09/04 04:36:18;;;;;;;;;9.75;7.50;;;;;12.02;78.60;100966.47;5094803;28;8833;-58
2023/09/04 04:38:45;;;;;;;;;5.50;5.00;;;;;12.00;78.24;100969.25;5094189;28;8821;-59
2023/09/04 04:41:13;;;;;;;;;6.50;5.50;;;;;11.99;78.47;100966.66;5094845;28;8940;-60
2023/09/04 04:43:41;;;;;;;;;4.00;4.00;;;;;11.98;78.90;100966.78;5094100;28;8864;-58
2023/09/04 04:46:12;;;;;;;;;6.50;6.50;;;;;11.93;78.46;100972.44;5094398;28;8972;-58
2023/09/04 04:48:39;;;;;;;;;6.75;6.50;;;;;11.90;78.76;100966.47;5094144;28;8894;-61
2023/09/04 04:51:08;;;;;;;;;5.50;5.00;;;;;11.87;79.13;100975.53;5093978;28;8830;-59
2023/09/04 04:53:36;;;;;;;;;3.50;3.50;;;;;11.85;78.58;100969.47;5094459;28;8868;-59
2023/09/04 04:56:03;;;;;;;;;4.50;4.00;;;;;11.81;78.85;100965.28;5094109;28;8844;-59
2023/09/04 04:58:31;;;;;;;;;5.00;4.50;;;;;11.79;78.53;100967.19;5093569;28;9513;-58
2023/09/04 05:00:59;;;;;;;;;6.00;6.00;;;;;11.76;79.35;100970.06;5094136;28;8833;-58
2023/09/04 05:03:26;;;;;;;;;3.25;3.25;;;;;11.77;78.76;100971.78;5094080;28;8972;-57
2023/09/04 05:05:54;;;;;;;;;3.75;3.50;;;;;11.77;78.67;100969.13;5094081;28;8838;-59
2023/09/04 05:08:22;;;;;;;;;3.75;3.00;;;;;11.79;78.64;100969.00;5093729;28;8838;-61
2023/09/04 05:10:50;;;;;;;;;3.75;3.75;;;;;11.76;78.43;100979.91;5091899;28;8818;-58
2023/09/04 05:13:17;;;;;;;;;5.00;5.00;;;;;11.73;79.30;100975.63;5093326;28;8818;-58
2023/09/04 05:15:44;;;;;;;;;5.50;4.00;;;;;11.70;78.88;100959.81;5093917;28;8842;-59
2023/09/04 05:18:12;;;;;;;;;6.00;6.00;;;;;11.70;79.02;100970.50;5094444;28;8852;-59
2023/09/04 05:20:39;;;;;;;;;4.50;4.00;;;;;11.70;78.71;100970.50;5094280;28;8829;-59
2023/09/04 05:23:07;;;;;;;;;5.00;4.50;;;;;11.72;78.96;100973.91;5093124;28;8973;-58
2023/09/04 05:25:34;;;;;;;;;4.00;4.00;;;;;11.77;78.65;100963.78;5093764;28;8814;-61
2023/09/04 05:28:02;;;;;;;;;6.25;6.00;;;;;11.82;78.57;100968.81;5094266;28;8975;-60
2023/09/04 05:30:30;;;;;;;;;4.00;4.00;;;;;11.88;78.47;100963.91;5093894;28;8945;-58
2023/09/04 05:32:58;;;;;;;;;5.50;5.50;;;;;11.95;78.18;100976.69;5093960;28;8836;-60
2023/09/04 05:35:26;;;;;;;;;6.75;6.00;;;;;12.03;77.89;100979.72;5094182;28;8829;-60
2023/09/04 05:37:53;;;;;;;;;6.25;6.00;;;;;12.13;77.46;100969.25;5094063;28;8810;-61
2023/09/04 05:40:21;;;;;;;;;6.25;6.25;;;;;12.22;77.74;100973.94;5093249;28;9561;-60
2023/09/04 05:42:49;;;;;;;;;8.00;7.00;;;;;12.31;77.90;100970.63;5092922;28;8822;-59
2023/09/04 05:45:17;;;;;;;;;8.50;8.50;;;;;12.40;77.13;100967.31;5093012;28;8946;-61
2023/09/04 05:47:45;;;;;;;;;11.50;10.00;;;;;12.52;77.16;100977.09;5096473;28;8966;-59
2023/09/04 05:50:12;;;;;;;;;4.00;3.75;;;;;12.65;76.47;100984.16;5095803;28;8902;-60
2023/09/04 05:52:40;;;;;;;;;9.25;7.50;;;;;12.79;76.43;100984.03;5096796;28;8826;-60
2023/09/04 05:55:08;;;;;;;;;8.50;7.00;;;;;12.91;76.50;100974.28;5096789;28;8952;-59
2023/09/04 05:57:36;;;;;;;;;9.25;8.00;;;;;13.01;76.11;100970.84;5096563;28;8817;-60
2023/09/04 06:00:06;;;;;;;;;7.00;6.50;;;;;13.12;75.80;100978.94;5096971;28;9221;-59
2023/09/04 06:02:34;;;;;;;;;8.50;8.00;;;;;13.25;75.47;100973.53;5096583;28;8837;-59
2023/09/04 06:05:02;;;;;;;;;6.00;6.00;;;;;13.37;75.67;100968.09;5095785;28;8830;-60
2023/09/04 06:07:30;;;;;;;;;9.50;9.00;;;;;13.53;75.43;100975.84;5095610;28;8833;-60
2023/09/04 06:09:58;;;;;;;;;9.75;9.00;;;;;13.68;74.76;100972.03;5096097;28;9551;-60
2023/09/04 06:12:26;;;;;;;;;8.50;8.00;;;;;13.85;74.48;100972.44;5095818;28;8861;-60
2023/09/04 06:14:53;;;;;;;;;10.00;10.00;;;;;14.00;74.50;100973.06;5095836;28;8834;-58
2023/09/04 06:17:21;;;;;;;;;13.00;12.00;;;;;14.17;74.06;100973.47;5094979;28;8880;-61
2023/09/04 06:19:48;;;;;;;;;10.50;9.75;;;;;14.30;73.62;100976.94;5094741;28;8841;-59
2023/09/04 06:22:16;;;;;;;;;10.00;9.00;;;;;14.44;73.75;100978.53;5095471;28;8956;-60
2023/09/04 06:24:44;;;;;;;;;9.50;9.50;;;;;14.55;73.32;100976.72;5095366;28;8842;-60
2023/09/04 06:27:11;;;;;;;;;9.50;8.50;;;;;14.64;73.42;100985.88;5095684;28;8822;-59
2023/09/04 06:29:39;;;;;;;;;8.00;7.50;;;;;14.71;73.46;100985.22;5095272;28;8833;-60
2023/09/04 06:32:07;;;;;;;;;7.00;7.00;;;;;14.82;73.30;100981.69;5096279;28;8868;-58
2023/09/04 06:34:34;;;;;;;;;13.00;11.00;;;;;14.93;72.69;100985.22;5096586;28;8972;-58
2023/09/04 06:37:02;;;;;;;;;9.25;9.25;;;;;15.03;72.72;100988.00;5096665;28;8842;-60
2023/09/04 06:39:30;;;;;;;;;8.00;7.00;;;;;15.10;72.55;100989.22;5096859;28;8826;-60
2023/09/04 06:41:58;;;;;;;;;6.75;6.00;;;;;15.20;72.45;100982.13;5096617;28;9796;-60
2023/09/04 06:44:25;;;;;;;;;10.00;10.00;;;;;15.32;72.50;100984.66;5096437;28;8826;-58
2023/09/04 06:46:53;;;;;;;;;11.00;9.50;;;;;15.45;72.26;100976.44;5096853;28;8842;-57
2023/09/04 06:49:21;;;;;;;;;9.25;9.25;;;;;15.57;72.16;100967.38;5096371;28;8829;-60
2023/09/04 06:51:48;;;;;;;;;11.50;11.50;;;;;15.70;72.10;100962.69;5095859;28;8952;-60
2023/09/04 06:54:16;;;;;;;;;9.50;9.25;;;;;15.84;72.02;100962.38;5096405;28;8818;-61
2023/09/04 06:56:44;;;;;;;;;12.50;12.00;;;;;15.99;71.99;100964.59;5095939;28;8838;-59
2023/09/04 06:59:12;;;;;;;;;8.00;7.00;;;;;16.15;71.54;100958.78;5094926;28;8833;-59
2023/09/04 07:01:39;;;;;;;;;9.75;8.50;;;;;16.28;71.25;100955.75;5095638;28;8842;-58
2023/09/04 07:04:08;;;;;;;;;10.00;9.00;;;;;16.40;70.68;100953.84;5095234;28;8906;-59
2023/09/04 07:06:35;;;;;;;;;11.00;10.50;;;;;16.47;70.66;100955.03;5095213;28;8980;-61
2023/09/04 07:09:04;;;;;;;;;9.00;8.50;;;;;16.57;70.80;100955.91;5094612;28;8845;-58
2023/09/04 07:11:32;;;;;;;;;10.60;9.60;;;;;16.69;70.40;100961.03;5094706;28;8850;-61
2023/09/04 07:13:59;;;;;;;;;7.40;6.80;;;;;16.82;70.58;100961.66;5095402;28;8945;-60
2023/09/04 07:16:27;;;;;;;;;7.40;7.00;;;;;16.94;70.46;100955.16;5095709;28;8830;-61
2023/09/04 07:19:09;;;;;;;;;11.60;10.00;;;;;17.09;70.35;100961.88;5096095;28;8821;-62
2023/09/04 07:21:40;;;;;;;;;9.60;8.80;;;;;17.22;69.94;100959.78;5094825;28;8856;-58
2023/09/04 07:24:08;;;;;;;;;10.00;9.00;;;;;17.35;70.08;100951.41;5094928;28;8908;-59
2023/09/04 07:26:35;;;;;;;;;9.00;8.20;;;;;17.48;69.20;100957.44;5095217;28;8968;-59
2023/09/04 07:29:03;;;;;;;;;4.80;3.00;;;;;17.61;68.78;100948.06;5094870;28;8838;-59
2023/09/04 07:31:31;;;;;;;;;9.00;9.00;;;;;17.73;69.05;100944.25;5094506;28;8830;-59
2023/09/04 07:33:58;;;;;;;;;6.20;6.00;;;;;17.86;68.81;100950.19;5094728;28;8854;-60
2023/09/04 07:36:26;;;;;;;;;9.40;8.80;;;;;17.99;68.40;100942.63;5095165;28;8814;-59
2023/09/04 07:38:54;;;;;;;;;7.00;6.40;;;;;18.11;68.37;100946.88;5094879;28;8824;-61
2023/09/04 07:41:22;;;;;;;;;8.40;7.80;;;;;18.25;68.57;100954.50;5095002;28;8822;-61
2023/09/04 07:43:51;;;;;;;;;6.20;6.00;;;;;18.35;68.47;100949.09;5095026;28;8829;-59
2023/09/04 07:46:18;;;;;;;;;10.40;7.40;;;;;18.46;68.44;100954.34;5094228;28;8961;-61
2023/09/04 07:48:46;;;;;;;;;9.00;9.00;;;;;18.58;68.20;100948.59;5094245;28;8852;-58
2023/09/04 07:51:14;;;;;;;;;8.20;7.40;;;;;18.69;67.77;100956.53;5094916;28;8822;-59
2023/09/04 07:54:00;;;;;;;;;7.00;7.00;;;;;18.82;67.63;100950.78;5094394;28;8838;-59
2023/09/04 07:56:28;;;;;;;;;10.00;7.20;;;;;18.92;67.54;100956.97;5094565;28;8844;-59
2023/09/04 07:59:08;;;;;;;;;3.40;2.60;;;;;19.05;67.52;100958.28;5094185;28;8829;-59
2023/09/04 08:01:36;;;;;;;;;9.40;7.00;;;;;19.15;67.13;100951.00;5094513;28;8826;-60
2023/09/04 08:04:04;;;;;;;;;9.00;7.00;;;;;19.25;67.18;100954.53;5093960;28;8971;-59
2023/09/04 08:06:32;;;;;;;;;8.60;6.00;;;;;19.34;67.01;100956.28;5093861;28;8838;-59
2023/09/04 08:08:59;;;;;;;;;7.60;7.00;;;;;19.42;67.34;100955.53;5094021;28;8834;-59
2023/09/04 08:11:27;;;;;;;;;8.80;7.00;;;;;19.51;66.85;100954.63;5094073;28;8810;-59
2023/09/04 08:13:55;;;;;;;;;11.00;7.20;;;;;19.60;66.76;100954.53;5093784;28;8863;-59
2023/09/04 08:16:23;;;;;;;;;4.00;4.00;;;;;19.73;66.96;100948.75;5092628;28;8853;-60
2023/09/04 08:18:51;;;;;;;;;8.60;8.60;;;;;19.84;66.71;100952.06;5093499;28;8833;-59
2023/09/04 08:21:18;;;;;;;;;5.00;4.00;;;;;19.94;66.56;100952.81;5093795;28;9712;-59
2023/09/04 08:23:46;;;;;;;;;7.40;7.00;;;;;20.06;66.40;100950.72;5093303;28;8826;-58
2023/09/04 08:26:14;;;;;;;;;5.40;5.20;;;;;20.17;66.37;100947.78;5093235;28;8850;-59
2023/09/04 08:28:43;;;;;;;;;7.80;7.00;;;;;20.27;65.77;100954.78;5092918;28;9872;-59
2023/09/04 08:31:11;;;;;;;;;7.00;7.00;;;;;20.38;65.79;100957.22;5093764;28;8841;-60
2023/09/04 08:33:39;;;;;;;;;7.80;7.20;;;;;20.50;65.80;100945.13;5094116;28;9542;-59
2023/09/04 08:36:06;;;;;;;;;6.60;6.60;;;;;20.61;65.26;100946.66;5093486;28;8960;-58
2023/09/04 08:38:34;;;;;;;;;7.80;7.80;;;;;20.72;65.52;100949.97;5093117;28;8914;-60
2023/09/04 08:41:02;;;;;;;;;4.60;4.60;;;;;20.83;65.55;100946.97;5093765;28;8810;-59
2023/09/04 08:43:30;;;;;;;;;7.40;7.00;;;;;20.93;65.63;100948.56;5094542;28;8818;-60
2023/09/04 08:45:58;;;;;;;;;6.60;5.00;;;;;21.05;65.03;100941.00;5093081;28;8846;-60
2023/09/04 08:48:26;;;;;;;;;7.60;7.60;;;;;21.16;64.57;100943.38;5092959;28;8833;-59
2023/09/04 08:50:53;;;;;;;;;7.00;5.80;;;;;21.27;64.40;100937.66;5093989;28;9571;-61
2023/09/04 08:53:21;;;;;;;;;4.00;4.00;;;;;21.41;64.39;100937.03;5094120;28;8826;-59
2023/09/04 08:55:49;;;;;;;;;4.60;4.60;;;;;21.56;64.56;100933.47;5093624;28;8841;-60
2023/09/04 08:58:17;;;;;;;;;5.00;5.00;;;;;21.74;64.07;100922.50;5093714;28;8845;-59
2023/09/04 09:00:45;;;;;;;;;2.00;2.00;;;;;21.87;63.93;100925.56;5094035;28;8955;-60
2023/09/04 09:03:13;;;;;;;;;5.00;4.00;;;;;21.98;63.67;100927.91;5093803;28;9808;-61
2023/09/04 09:05:44;;;;;;;;;5.80;5.20;;;;;22.09;63.77;100933.00;5093576;28;8841;-60
2023/09/04 09:08:12;;;;;;;;;6.00;5.20;;;;;22.21;63.08;100928.91;5093639;28;8921;-59
2023/09/04 09:10:40;;;;;;;;;4.80;4.60;;;;;22.37;63.10;100928.84;5093017;28;8845;-61
2023/09/04 09:13:07;;;;;;;;;4.40;4.40;;;;;22.53;62.84;100927.00;5093118;28;8872;-60
2023/09/04 09:15:35;;;;;;;;;8.00;6.80;;;;;22.67;62.45;100919.97;5093297;28;8834;-60
2023/09/04 09:18:04;;;;;;;;;4.00;4.00;;;;;22.79;62.39;100921.28;5093128;28;8838;-60
2023/09/04 09:20:32;;;;;;;;;4.80;4.80;;;;;22.91;62.49;100919.91;5093723;28;8841;-60
2023/09/04 09:23:00;;;;;;;;;5.00;4.00;;;;;23.00;62.00;100918.81;5097289;28;8903;-59
2023/09/04 09:25:28;;;;;;;;;3.60;3.60;;;;;23.11;62.57;100916.56;5097808;28;8849;-60
2023/09/04 09:27:56;;;;;;;;;5.20;5.20;;;;;23.26;62.06;100912.09;5097563;28;8818;-59
2023/09/04 09:30:24;;;;;;;;;4.00;4.00;;;;;23.52;61.23;100918.00;5097357;28;8860;-59
2023/09/04 09:32:51;;;;;;;;;3.20;3.20;;;;;23.73;60.62;100911.88;5096501;28;8907;-62
2023/09/04 09:35:19;;;;;;;;;4.00;3.60;;;;;23.84;60.73;100903.31;5096754;28;8826;-60
2023/09/04 09:37:47;;;;;;;;;4.00;4.00;;;;;23.91;60.68;100907.03;5095437;28;9659;-61
2023/09/04 09:40:15;;;;;;;;;2.20;2.20;;;;;23.94;60.69;100903.91;5096265;28;8860;-60
2023/09/04 09:42:43;;;;;;;;;2.60;2.00;;;;;23.97;60.12;100901.69;5096508;28;9538;-60
2023/09/04 09:45:11;;;;;;;;;2.00;2.00;;;;;24.02;60.21;100906.56;5096721;28;8833;-60
2023/09/04 09:47:39;;;;;;;;;2.40;2.40;;;;;24.08;59.89;100906.69;5096007;28;8834;-60
2023/09/04 09:50:06;;;;;;;;;5.00;5.00;;;;;24.15;59.84;100907.66;5096267;28;8845;-60
2023/09/04 09:52:34;;;;;;;;;3.20;3.20;;;;;24.31;59.60;100895.72;5095893;28;8858;-60
2023/09/04 09:55:03;;;;;;;;;3.20;3.20;;;;;24.70;59.12;100894.44;5095092;28;8848;-60
2023/09/04 09:57:30;;;;;;;;;2.20;2.00;;;;;25.37;57.21;100886.88;5095593;28;8837;-59
2023/09/04 09:59:58;;;;;;;;;2.60;2.60;;;;;26.13;55.85;100888.69;5095290;28;8926;-61
2023/09/04 10:02:27;;;;;;;;;2.40;2.00;;;;;26.94;54.85;100883.28;5094903;28;8842;-60
2023/09/04 10:04:55;;;;;;;;;2.00;2.00;;;;;27.72;53.57;100882.66;5094808;28;8877;-61
2023/09/04 10:07:23;;;;;;;;;2.40;2.40;;;;;28.48;52.66;100885.63;5095247;28;8837;-60
2023/09/04 10:09:50;;;;;;;;;3.00;3.00;;;;;29.23;51.57;100882.16;5094000;28;8826;-61
2023/09/04 10:12:19;;;;;;;;;3.00;2.00;;;;;29.84;50.89;100880.50;5094767;28;8849;-60
2023/09/04 10:14:46;;;;;;;;;3.60;3.60;;;;;30.42;49.52;100880.00;5095953;28;8848;-61
2023/09/04 10:17:14;;;;;;;;;2.00;2.00;;;;;30.93;49.31;100869.47;5096107;28;8849;-60
2023/09/04 10:19:42;;;;;;;;;3.60;3.60;;;;;31.53;48.35;100863.78;5095591;28;8826;-62
2023/09/04 10:22:10;;;;;;;;;3.20;3.20;;;;;32.06;47.94;100861.88;5095533;28;8833;-61
2023/09/04 10:24:38;;;;;;;;;6.00;5.00;;;;;32.50;47.47;100857.69;5096122;28;8855;-61
2023/09/04 10:27:05;;;;;;;;;2.00;2.00;;;;;32.84;47.09;100857.63;5096054;28;8857;-60
2023/09/04 10:29:33;;;;;;;;;3.00;3.00;;;;;33.12;46.13;100851.28;5095477;28;8842;-60
2023/09/04 10:32:01;;;;;;;;;3.00;3.00;;;;;33.19;46.76;100847.31;5094588;28;8915;-60
2023/09/04 10:34:30;;;;;;;;;4.00;4.00;;;;;33.10;46.88;100839.66;5093860;28;8888;-60
2023/09/04 10:36:57;;;;;;;;;4.40;4.00;;;;;33.03;47.26;100837.06;5094254;28;8856;-60
2023/09/04 10:39:25;;;;;;;;;2.80;2.80;;;;;32.97;47.35;100843.56;5094983;28;8830;-61
2023/09/04 10:41:53;;;;;;;;;2.00;2.00;;;;;32.70;48.02;100831.34;5094576;28;8834;-60
2023/09/04 10:44:21;;;;;;;;;0.40;0.40;;;;;32.28;49.53;100826.28;5095013;28;8910;-60
2023/09/04 10:46:49;;;;;;;;;3.20;3.00;;;;;31.91;50.05;100830.31;5095257;28;8842;-60
2023/09/04 10:49:17;;;;;;;;;2.00;2.00;;;;;31.51;50.99;100830.13;5095239;28;8841;-60
2023/09/04 10:51:45;;;;;;;;;3.20;3.00;;;;;31.34;51.01;100833.78;5094921;28;8846;-60
2023/09/04 10:54:12;;;;;;;;;2.00;2.00;;;;;31.43;50.76;100824.13;5092882;28;8980;-61
2023/09/04 10:56:41;;;;;;;;;2.80;2.80;;;;;31.49;50.74;100832.25;5092270;28;8833;-60
2023/09/04 10:59:08;;;;;;;;;3.00;2.00;;;;;31.74;49.87;100823.84;5093549;28;8860;-60
2023/09/04 11:01:36;;;;;;;;;3.00;3.00;;;;;32.03;49.66;100822.91;5092709;28;8822;-60
2023/09/04 11:04:04;;;;;;;;;3.40;3.00;;;;;32.34;49.28;100825.31;5092934;28;8830;-61
2023/09/04 11:06:32;;;;;;;;;3.00;3.00;;;;;32.57;48.85;100826.13;5091737;28;8854;-60
2023/09/04 11:09:01;;;;;;;;;3.00;2.80;;;;;32.58;48.82;100821.44;5091449;28;8880;-60
2023/09/04 11:11:29;;;;;;;;;4.00;4.00;;;;;32.43;48.53;100819.19;5092291;28;8880;-60
2023/09/04 11:13:56;;;;;;;;;2.60;2.20;;;;;32.52;48.34;100814.13;5092659;28;8834;-60
2023/09/04 11:16:24;;;;;;;;;3.00;3.00;;;;;33.01;47.46;100814.34;5093128;28;9773;-60
2023/09/04 11:18:52;;;;;;;;;3.40;3.40;;;;;33.63;45.95;100807.81;5092821;28;8992;-60
2023/09/04 11:21:20;;;;;;;;;1.00;1.00;;;;;34.25;44.74;100823.25;5094061;28;8880;-60
2023/09/04 11:23:50;;;;;;;;;3.00;3.00;;;;;34.79;44.31;100819.56;5094265;28;8890;-60
2023/09/04 11:26:18;;;;;;;;;3.00;3.00;;;;;35.33;43.07;100817.72;5094040;28;8822;-60
2023/09/04 11:28:46;;;;;;;;;2.60;2.60;;;;;35.72;42.31;100810.91;5093670;28;8845;-61
2023/09/04 11:31:14;;;;;;;;;2.60;2.60;;;;;36.21;42.20;100816.03;5093593;28;8846;-61
2023/09/04 11:33:42;;;;;;;;;2.80;2.60;;;;;36.67;41.45;100810.47;5094360;28;8848;-60